O38 weather

Gundys Airport
Owasso, Oklahoma, United States

Public forecast

Using degrees Fahrenheit for public forecast. Weather courtesy of forecast.io.

METAR (pilot weather report)

Closest report is Tulsa International Airport, 6.5 nm (12.1 km) SW. Retrieved 2019/04/24 22:53 UTC (43 minutes ago):

KTUL 242253Z 31006KT 10SM OVC019 17/13 A2985 RMK AO2 SLP105 T01670128

TAF (pilot weather forecast)

Closest forecast is Tulsa International Airport, 6.5 nm (12.1 km) SW. Retrieved 2019/04/24 18:22 UTC (5 hours ago):

TAF KTUL 241720Z 2418/2518 04005KT P6SM OVC015 FM242100 36005KT P6SM BKN035 FM250300 VRB03KT P6SM SCT025 BKN250 TEMPO 2509/2513 4SM BR OVC025 FM251500 35009KT P6SM SCT250